sensor_id;sensor_type;location;lat;lon;timestamp;pressure;altitude;pressure_sealevel;temperature;humidity
250;BME280;109;19.806;-70.704;2023-02-28T00:00:22;101648.56;;;22.86;52.33
250;BME280;109;19.806;-70.704;2023-02-28T00:02:49;101660.19;;;22.84;52.51
250;BME280;109;19.806;-70.704;2023-02-28T00:05:19;101659.28;;;22.85;52.61
250;BME280;109;19.806;-70.704;2023-02-28T00:07:46;101662.16;;;22.77;52.91
250;BME280;109;19.806;-70.704;2023-02-28T00:10:15;101668.38;;;22.78;52.84
250;BME280;109;19.806;-70.704;2023-02-28T00:12:50;101670.84;;;22.85;52.59
250;BME280;109;19.806;-70.704;2023-02-28T00:15:18;101673.84;;;22.75;52.83
250;BME280;109;19.806;-70.704;2023-02-28T00:17:44;101676.31;;;22.81;52.61
250;BME280;109;19.806;-70.704;2023-02-28T00:20:12;101676.50;;;22.75;52.67
250;BME280;109;19.806;-70.704;2023-02-28T00:22:43;101683.38;;;22.82;52.61
250;BME280;109;19.806;-70.704;2023-02-28T00:25:11;101682.66;;;22.77;53.23
250;BME280;109;19.806;-70.704;2023-02-28T00:27:39;101675.13;;;22.61;54.20
250;BME280;109;19.806;-70.704;2023-02-28T00:30:08;101679.84;;;22.52;54.32
250;BME280;109;19.806;-70.704;2023-02-28T00:32:37;101684.66;;;22.39;54.66
250;BME280;109;19.806;-70.704;2023-02-28T00:35:05;101690.16;;;22.33;54.74
250;BME280;109;19.806;-70.704;2023-02-28T00:37:32;101690.53;;;22.21;54.78
250;BME280;109;19.806;-70.704;2023-02-28T00:39:59;101694.19;;;22.17;54.90
250;BME280;109;19.806;-70.704;2023-02-28T00:42:26;101693.34;;;22.15;54.99
250;BME280;109;19.806;-70.704;2023-02-28T00:44:53;101700.13;;;22.26;54.62
250;BME280;109;19.806;-70.704;2023-02-28T00:47:26;101703.03;;;22.19;54.81
250;BME280;109;19.806;-70.704;2023-02-28T00:49:52;101711.09;;;22.16;55.14
250;BME280;109;19.806;-70.704;2023-02-28T00:52:26;101707.75;;;22.09;55.41
250;BME280;109;19.806;-70.704;2023-02-28T00:54:54;101707.63;;;22.12;55.22
250;BME280;109;19.806;-70.704;2023-02-28T00:57:27;101710.19;;;22.17;55.16
250;BME280;109;19.806;-70.704;2023-02-28T00:59:54;101709.03;;;21.94;55.72
250;BME280;109;19.806;-70.704;2023-02-28T01:02:27;101714.09;;;21.70;56.12
250;BME280;109;19.806;-70.704;2023-02-28T01:04:53;101710.41;;;21.74;56.05
250;BME280;109;19.806;-70.704;2023-02-28T01:07:29;101716.94;;;21.62;55.78
250;BME280;109;19.806;-70.704;2023-02-28T01:09:56;101712.28;;;21.72;55.99
250;BME280;109;19.806;-70.704;2023-02-28T01:12:29;101715.16;;;21.63;55.99
250;BME280;109;19.806;-70.704;2023-02-28T01:14:55;101714.13;;;21.68;56.09
250;BME280;109;19.806;-70.704;2023-02-28T01:17:29;101713.50;;;21.58;56.41
250;BME280;109;19.806;-70.704;2023-02-28T01:19:59;101714.19;;;21.65;56.00
250;BME280;109;19.806;-70.704;2023-02-28T01:22:34;101709.81;;;21.63;56.69
250;BME280;109;19.806;-70.704;2023-02-28T01:25:01;101715.16;;;21.63;56.54
250;BME280;109;19.806;-70.704;2023-02-28T01:27:34;101719.81;;;21.54;56.83
250;BME280;109;19.806;-70.704;2023-02-28T01:30:02;101726.97;;;21.52;56.62
250;BME280;109;19.806;-70.704;2023-02-28T01:32:36;101730.63;;;21.47;56.90
250;BME280;109;19.806;-70.704;2023-02-28T01:35:03;101734.28;;;21.44;57.18
250;BME280;109;19.806;-70.704;2023-02-28T01:37:37;101732.66;;;21.37;56.96
250;BME280;109;19.806;-70.704;2023-02-28T01:40:18;101736.31;;;21.33;57.02
250;BME280;109;19.806;-70.704;2023-02-28T01:42:44;101737.28;;;21.31;57.02
250;BME280;109;19.806;-70.704;2023-02-28T01:45:45;101744.34;;;21.32;56.95
250;BME280;109;19.806;-70.704;2023-02-28T01:48:23;101738.13;;;21.33;57.21
250;BME280;109;19.806;-70.704;2023-02-28T01:51:02;101741.53;;;21.38;57.15
250;BME280;109;19.806;-70.704;2023-02-28T01:53:44;101737.78;;;21.46;56.73
250;BME280;109;19.806;-70.704;2023-02-28T01:56:22;101737.97;;;21.37;57.09
250;BME280;109;19.806;-70.704;2023-02-28T01:58:57;101742.59;;;21.31;57.14
250;BME280;109;19.806;-70.704;2023-02-28T02:01:26;101737.44;;;21.23;57.65
250;BME280;109;19.806;-70.704;2023-02-28T02:04:02;101748.03;;;21.24;57.67
250;BME280;109;19.806;-70.704;2023-02-28T02:06:35;101736.44;;;21.29;57.60
250;BME280;109;19.806;-70.704;2023-02-28T02:09:11;101737.34;;;21.28;57.63
250;BME280;109;19.806;-70.704;2023-02-28T02:11:40;101734.63;;;21.29;57.50
250;BME280;109;19.806;-70.704;2023-02-28T02:17:14;101738.16;;;21.31;57.20
250;BME280;109;19.806;-70.704;2023-02-28T02:25:53;101731.72;;;21.40;57.23
250;BME280;109;19.806;-70.704;2023-02-28T02:37:29;101738.56;;;21.50;56.55
250;BME280;109;19.806;-70.704;2023-02-28T02:40:22;101732.38;;;21.48;56.59
250;BME280;109;19.806;-70.704;2023-02-28T02:43:01;101727.91;;;21.50;56.51
250;BME280;109;19.806;-70.704;2023-02-28T02:45:49;101721.63;;;21.52;56.65
250;BME280;109;19.806;-70.704;2023-02-28T02:48:30;101727.03;;;21.49;56.57
250;BME280;109;19.806;-70.704;2023-02-28T02:51:10;101735.19;;;21.43;57.19
250;BME280;109;19.806;-70.704;2023-02-28T02:53:52;101724.50;;;21.45;56.97
250;BME280;109;19.806;-70.704;2023-02-28T02:56:29;101724.50;;;21.45;56.76
250;BME280;109;19.806;-70.704;2023-02-28T02:59:07;101730.69;;;21.45;56.83
250;BME280;109;19.806;-70.704;2023-02-28T03:01:43;101731.66;;;21.43;56.74
250;BME280;109;19.806;-70.704;2023-02-28T03:04:17;101724.53;;;21.43;56.37
250;BME280;109;19.806;-70.704;2023-02-28T03:06:51;101730.81;;;21.41;56.77
250;BME280;109;19.806;-70.704;2023-02-28T03:09:25;101732.50;;;21.45;57.05
250;BME280;109;19.806;-70.704;2023-02-28T03:11:58;101722.84;;;21.39;57.04
250;BME280;109;19.806;-70.704;2023-02-28T03:14:54;101731.81;;;21.35;57.19
250;BME280;109;19.806;-70.704;2023-02-28T03:20:41;101722.06;;;21.34;57.29
250;BME280;109;19.806;-70.704;2023-02-28T03:26:20;101722.91;;;21.36;56.76
250;BME280;109;19.806;-70.704;2023-02-28T03:29:18;101716.75;;;21.34;57.06
250;BME280;109;19.806;-70.704;2023-02-28T03:37:45;101729.28;;;21.31;56.80
250;BME280;109;19.806;-70.704;2023-02-28T03:40:26;101730.03;;;21.36;56.72
250;BME280;109;19.806;-70.704;2023-02-28T03:43:04;101733.75;;;21.29;57.10
250;BME280;109;19.806;-70.704;2023-02-28T03:45:41;101730.19;;;21.30;57.00
250;BME280;109;19.806;-70.704;2023-02-28T03:48:16;101732.91;;;21.27;57.01
250;BME280;109;19.806;-70.704;2023-02-28T03:50:54;101739.16;;;21.26;57.13
250;BME280;109;19.806;-70.704;2023-02-28T03:53:39;101729.47;;;21.21;57.29
250;BME280;109;19.806;-70.704;2023-02-28T03:56:38;101733.88;;;21.22;57.11
250;BME280;109;19.806;-70.704;2023-02-28T04:01:51;101726.72;;;21.26;56.92
250;BME280;109;19.806;-70.704;2023-02-28T04:04:18;101725.91;;;21.22;56.94
250;BME280;109;19.806;-70.704;2023-02-28T04:06:52;101714.50;;;21.17;56.90
250;BME280;109;19.806;-70.704;2023-02-28T04:09:33;101718.94;;;21.17;56.91
250;BME280;109;19.806;-70.704;2023-02-28T04:12:00;101718.91;;;21.18;57.34
250;BME280;109;19.806;-70.704;2023-02-28T04:14:33;101720.75;;;21.16;57.34
250;BME280;109;19.806;-70.704;2023-02-28T04:17:06;101716.41;;;21.09;57.51
250;BME280;109;19.806;-70.704;2023-02-28T04:19:39;101721.75;;;21.09;57.63
250;BME280;109;19.806;-70.704;2023-02-28T04:22:05;101719.19;;;21.06;58.08
250;BME280;109;19.806;-70.704;2023-02-28T04:24:39;101717.31;;;21.08;57.79
250;BME280;109;19.806;-70.704;2023-02-28T04:27:09;101710.06;;;21.18;57.81
250;BME280;109;19.806;-70.704;2023-02-28T04:29:42;101710.06;;;21.18;57.68
250;BME280;109;19.806;-70.704;2023-02-28T04:32:10;101712.81;;;21.13;58.15
250;BME280;109;19.806;-70.704;2023-02-28T04:34:44;101715.47;;;21.12;57.71
250;BME280;109;19.806;-70.704;2023-02-28T04:37:30;101706.19;;;20.93;58.24
250;BME280;109;19.806;-70.704;2023-02-28T04:40:07;101716.63;;;21.00;58.00
250;BME280;109;19.806;-70.704;2023-02-28T04:42:34;101707.56;;;21.09;57.49
250;BME280;109;19.806;-70.704;2023-02-28T04:45:08;101704.13;;;21.05;57.61
250;BME280;109;19.806;-70.704;2023-02-28T04:47:36;101704.13;;;21.05;57.89
250;BME280;109;19.806;-70.704;2023-02-28T04:50:09;101701.50;;;21.02;58.35
250;BME280;109;19.806;-70.704;2023-02-28T04:52:36;101695.16;;;21.08;58.30
250;BME280;109;19.806;-70.704;2023-02-28T04:55:09;101686.25;;;21.09;57.63
250;BME280;109;19.806;-70.704;2023-02-28T04:57:36;101689.69;;;21.15;56.96
250;BME280;109;19.806;-70.704;2023-02-28T05:00:12;101681.00;;;21.07;57.01
250;BME280;109;19.806;-70.704;2023-02-28T05:02:49;101685.22;;;21.17;56.98
250;BME280;109;19.806;-70.704;2023-02-28T05:05:15;101675.75;;;21.04;56.51
250;BME280;109;19.806;-70.704;2023-02-28T05:07:50;101669.06;;;21.23;55.99
250;BME280;109;19.806;-70.704;2023-02-28T05:10:16;101670.00;;;21.22;55.59
250;BME280;109;19.806;-70.704;2023-02-28T05:12:50;101666.66;;;21.14;55.58
250;BME280;109;19.806;-70.704;2023-02-28T05:15:24;101659.31;;;21.24;54.89
250;BME280;109;19.806;-70.704;2023-02-28T05:17:57;101650.31;;;21.30;55.14
250;BME280;109;19.806;-70.704;2023-02-28T05:20:23;101655.94;;;21.17;56.14
250;BME280;109;19.806;-70.704;2023-02-28T05:22:58;101662.25;;;21.12;55.83
250;BME280;109;19.806;-70.704;2023-02-28T05:25:25;101658.94;;;21.02;56.49
250;BME280;109;19.806;-70.704;2023-02-28T05:27:58;101650.25;;;20.94;56.30
250;BME280;109;19.806;-70.704;2023-02-28T05:30:25;101644.09;;;20.92;56.11
250;BME280;109;19.806;-70.704;2023-02-28T05:32:58;101637.19;;;20.83;56.57
250;BME280;109;19.806;-70.704;2023-02-28T05:35:25;101640.06;;;20.74;56.47
250;BME280;109;19.806;-70.704;2023-02-28T05:37:59;101631.28;;;20.71;56.93
250;BME280;109;19.806;-70.704;2023-02-28T05:40:39;101631.41;;;20.66;56.51
250;BME280;109;19.806;-70.704;2023-02-28T05:43:09;101622.53;;;20.66;56.67
250;BME280;109;19.806;-70.704;2023-02-28T05:45:43;101618.97;;;20.67;56.28
250;BME280;109;19.806;-70.704;2023-02-28T05:48:09;101615.19;;;20.77;55.97
250;BME280;109;19.806;-70.704;2023-02-28T05:50:43;101602.75;;;20.77;55.56
250;BME280;109;19.806;-70.704;2023-02-28T05:53:12;101604.34;;;20.84;55.27
250;BME280;109;19.806;-70.704;2023-02-28T05:55:45;101600.75;;;20.87;55.11
250;BME280;109;19.806;-70.704;2023-02-28T05:58:11;101595.22;;;20.95;53.98
250;BME280;109;19.806;-70.704;2023-02-28T06:00:44;101602.28;;;20.96;54.70
250;BME280;109;19.806;-70.704;2023-02-28T06:03:11;101589.38;;;20.80;54.17
250;BME280;109;19.806;-70.704;2023-02-28T06:05:51;101587.94;;;21.03;53.91
250;BME280;109;19.806;-70.704;2023-02-28T06:08:25;101583.44;;;21.06;53.61
250;BME280;109;19.806;-70.704;2023-02-28T06:10:51;101584.13;;;21.14;53.95
250;BME280;109;19.806;-70.704;2023-02-28T06:13:25;101588.03;;;20.98;53.74
250;BME280;109;19.806;-70.704;2023-02-28T06:15:51;101585.03;;;21.13;53.12
250;BME280;109;19.806;-70.704;2023-02-28T06:18:24;101575.25;;;21.14;53.15
250;BME280;109;19.806;-70.704;2023-02-28T06:20:54;101575.16;;;21.18;53.52
250;BME280;109;19.806;-70.704;2023-02-28T06:23:27;101573.19;;;21.25;53.18
250;BME280;109;19.806;-70.704;2023-02-28T06:25:54;101572.31;;;21.24;53.30
250;BME280;109;19.806;-70.704;2023-02-28T06:28:30;101575.06;;;21.21;53.67
250;BME280;109;19.806;-70.704;2023-02-28T06:30:57;101573.22;;;21.23;53.73
250;BME280;109;19.806;-70.704;2023-02-28T06:33:30;101567.13;;;21.20;53.50
250;BME280;109;19.806;-70.704;2023-02-28T06:35:56;101559.09;;;21.21;52.97
250;BME280;109;19.806;-70.704;2023-02-28T06:38:31;101562.75;;;21.17;53.19
250;BME280;109;19.806;-70.704;2023-02-28T06:41:18;101563.41;;;21.26;53.19
250;BME280;109;19.806;-70.704;2023-02-28T06:43:52;101562.72;;;21.19;54.06
250;BME280;109;19.806;-70.704;2023-02-28T06:46:19;101563.06;;;21.04;54.41
250;BME280;109;19.806;-70.704;2023-02-28T06:48:52;101561.13;;;20.75;55.23
250;BME280;109;19.806;-70.704;2023-02-28T06:51:20;101551.06;;;20.87;55.10
250;BME280;109;19.806;-70.704;2023-02-28T06:53:54;101551.25;;;20.80;55.20
250;BME280;109;19.806;-70.704;2023-02-28T06:56:20;101547.84;;;20.73;55.63
250;BME280;109;19.806;-70.704;2023-02-28T06:58:54;101548.75;;;20.72;55.80
250;BME280;109;19.806;-70.704;2023-02-28T07:01:22;101544.50;;;20.67;55.86
250;BME280;109;19.806;-70.704;2023-02-28T07:03:59;101540.13;;;20.64;55.69
250;BME280;109;19.806;-70.704;2023-02-28T07:06:26;101539.34;;;20.59;55.57
250;BME280;109;19.806;-70.704;2023-02-28T07:08:59;101543.75;;;20.60;55.72
250;BME280;109;19.806;-70.704;2023-02-28T07:11:27;101534.94;;;20.57;56.06
250;BME280;109;19.806;-70.704;2023-02-28T07:14:00;101536.13;;;20.43;56.46
250;BME280;109;19.806;-70.704;2023-02-28T07:16:34;101537.06;;;20.42;56.26
250;BME280;109;19.806;-70.704;2023-02-28T07:19:08;101532.69;;;20.40;56.46
250;BME280;109;19.806;-70.704;2023-02-28T07:21:34;101530.91;;;20.40;56.78
250;BME280;109;19.806;-70.704;2023-02-28T07:24:07;101528.34;;;20.36;56.83
250;BME280;109;19.806;-70.704;2023-02-28T07:26:34;101524.56;;;20.44;56.74
250;BME280;109;19.806;-70.704;2023-02-28T07:29:07;101523.38;;;20.19;57.14
250;BME280;109;19.806;-70.704;2023-02-28T07:31:33;101522.47;;;20.20;57.06
250;BME280;109;19.806;-70.704;2023-02-28T07:34:07;101524.41;;;20.13;57.07
250;BME280;109;19.806;-70.704;2023-02-28T07:36:34;101522.75;;;20.08;57.23
250;BME280;109;19.806;-70.704;2023-02-28T07:39:07;101520.16;;;20.05;57.60
250;BME280;109;19.806;-70.704;2023-02-28T07:41:47;101514.94;;;20.02;57.18
250;BME280;109;19.806;-70.704;2023-02-28T07:44:14;101519.09;;;20.13;56.83
250;BME280;109;19.806;-70.704;2023-02-28T07:46:47;101513.66;;;20.18;56.41
250;BME280;109;19.806;-70.704;2023-02-28T07:49:14;101516.41;;;20.15;56.53
250;BME280;109;19.806;-70.704;2023-02-28T07:51:47;101514.56;;;20.17;56.43
250;BME280;109;19.806;-70.704;2023-02-28T07:54:13;101513.66;;;20.18;56.80
250;BME280;109;19.806;-70.704;2023-02-28T07:56:46;101511.00;;;20.18;56.67
250;BME280;109;19.806;-70.704;2023-02-28T07:59:12;101511.16;;;20.12;56.50
250;BME280;109;19.806;-70.704;2023-02-28T08:01:53;101509.41;;;20.11;56.83
250;BME280;109;19.806;-70.704;2023-02-28T08:04:26;101513.25;;;19.98;57.32
250;BME280;109;19.806;-70.704;2023-02-28T08:06:53;101512.41;;;19.96;57.11
250;BME280;109;19.806;-70.704;2023-02-28T08:09:26;101506.22;;;19.94;57.16
250;BME280;109;19.806;-70.704;2023-02-28T08:11:52;101506.06;;;20.03;57.22
250;BME280;109;19.806;-70.704;2023-02-28T08:14:26;101501.91;;;19.90;57.43
250;BME280;109;19.806;-70.704;2023-02-28T08:16:52;101502.47;;;20.04;57.40
250;BME280;109;19.806;-70.704;2023-02-28T08:19:26;101511.22;;;20.09;57.92
250;BME280;109;19.806;-70.704;2023-02-28T08:21:53;101507.72;;;20.07;57.94
250;BME280;109;19.806;-70.704;2023-02-28T08:24:26;101512.91;;;20.13;57.92
250;BME280;109;19.806;-70.704;2023-02-28T08:26:53;101516.47;;;20.12;57.37
250;BME280;109;19.806;-70.704;2023-02-28T08:29:26;101513.56;;;20.23;57.52
250;BME280;109;19.806;-70.704;2023-02-28T08:31:53;101518.78;;;20.27;57.46
250;BME280;109;19.806;-70.704;2023-02-28T08:34:26;101511.53;;;20.34;57.05
250;BME280;109;19.806;-70.704;2023-02-28T08:37:13;101512.97;;;20.50;56.87
250;BME280;109;19.806;-70.704;2023-02-28T08:39:46;101518.19;;;20.55;56.62
250;BME280;109;19.806;-70.704;2023-02-28T08:42:13;101512.59;;;20.65;56.62
250;BME280;109;19.806;-70.704;2023-02-28T08:44:46;101521.28;;;20.72;56.29
250;BME280;109;19.806;-70.704;2023-02-28T08:47:20;101515.75;;;20.81;56.06
250;BME280;109;19.806;-70.704;2023-02-28T08:49:53;101512.28;;;20.77;56.58
250;BME280;109;19.806;-70.704;2023-02-28T08:52:20;101512.44;;;20.71;55.75
250;BME280;109;19.806;-70.704;2023-02-28T08:54:53;101505.22;;;20.76;55.60
250;BME280;109;19.806;-70.704;2023-02-28T08:57:20;101514.88;;;20.80;55.70
250;BME280;109;19.806;-70.704;2023-02-28T08:59:53;101516.25;;;20.95;55.13
250;BME280;109;19.806;-70.704;2023-02-28T09:02:20;101514.03;;;20.78;55.62
250;BME280;109;19.806;-70.704;2023-02-28T09:04:53;101516.50;;;20.86;55.96
250;BME280;109;19.806;-70.704;2023-02-28T09:07:21;101518.22;;;20.88;55.84
250;BME280;109;19.806;-70.704;2023-02-28T09:09:54;101521.72;;;20.91;55.58
250;BME280;109;19.806;-70.704;2023-02-28T09:12:25;101523.44;;;20.93;55.45
250;BME280;109;19.806;-70.704;2023-02-28T09:14:59;101521.56;;;20.95;55.33
250;BME280;109;19.806;-70.704;2023-02-28T09:17:26;101528.81;;;20.90;55.64
250;BME280;109;19.806;-70.704;2023-02-28T09:19:59;101520.91;;;20.87;56.09
250;BME280;109;19.806;-70.704;2023-02-28T09:22:26;101525.41;;;20.85;55.83
250;BME280;109;19.806;-70.704;2023-02-28T09:24:59;101535.25;;;20.81;56.24
250;BME280;109;19.806;-70.704;2023-02-28T09:27:26;101529.72;;;20.89;56.44
250;BME280;109;19.806;-70.704;2023-02-28T09:29:59;101540.66;;;20.78;56.09
250;BME280;109;19.806;-70.704;2023-02-28T09:32:26;101542.19;;;20.87;56.25
250;BME280;109;19.806;-70.704;2023-02-28T09:34:59;101536.84;;;20.88;56.16
250;BME280;109;19.806;-70.704;2023-02-28T09:37:48;101549.03;;;20.97;56.13
250;BME280;109;19.806;-70.704;2023-02-28T09:40:24;101546.47;;;20.94;56.27
250;BME280;109;19.806;-70.704;2023-02-28T09:42:52;101553.59;;;20.94;56.44
250;BME280;109;19.806;-70.704;2023-02-28T09:45:35;101550.75;;;21.00;56.25
250;BME280;109;19.806;-70.704;2023-02-28T09:48:16;101548.97;;;21.00;56.31
250;BME280;109;19.806;-70.704;2023-02-28T09:51:03;101561.34;;;21.01;56.87
250;BME280;109;19.806;-70.704;2023-02-28T09:53:37;101562.19;;;21.03;56.84
250;BME280;109;19.806;-70.704;2023-02-28T09:56:18;101567.66;;;20.97;56.92
250;BME280;109;19.806;-70.704;2023-02-28T09:59:25;101572.25;;;20.92;57.04
250;BME280;109;19.806;-70.704;2023-02-28T10:04:58;101578.28;;;20.99;57.66
250;BME280;109;19.806;-70.704;2023-02-28T10:07:55;101583.31;;;21.09;57.35
250;BME280;109;19.806;-70.704;2023-02-28T10:10:41;101579.22;;;20.96;57.29
250;BME280;109;19.806;-70.704;2023-02-28T10:16:11;101587.41;;;20.88;57.80
250;BME280;109;19.806;-70.704;2023-02-28T10:18:51;101600.91;;;20.81;57.70
250;BME280;109;19.806;-70.704;2023-02-28T10:21:55;101604.44;;;20.81;57.66
250;BME280;109;19.806;-70.704;2023-02-28T10:27:23;101595.31;;;20.92;57.88
250;BME280;109;19.806;-70.704;2023-02-28T10:29:59;101596.06;;;20.97;57.76
250;BME280;109;19.806;-70.704;2023-02-28T10:32:32;101606.66;;;20.98;57.91
250;BME280;109;19.806;-70.704;2023-02-28T10:38:53;101606.84;;;20.92;58.27
250;BME280;109;19.806;-70.704;2023-02-28T10:41:33;101603.34;;;20.90;58.24
250;BME280;109;19.806;-70.704;2023-02-28T10:44:20;101607.84;;;20.86;58.70
250;BME280;109;19.806;-70.704;2023-02-28T10:46:53;101605.06;;;20.93;58.41
250;BME280;109;19.806;-70.704;2023-02-28T10:49:23;101615.53;;;20.99;58.12
250;BME280;109;19.806;-70.704;2023-02-28T10:52:00;101618.22;;;20.97;58.54
250;BME280;109;19.806;-70.704;2023-02-28T10:54:35;101610.53;;;20.85;58.83
250;BME280;109;19.806;-70.704;2023-02-28T10:57:12;101616.56;;;20.93;58.99
250;BME280;109;19.806;-70.704;2023-02-28T10:59:41;101627.38;;;20.85;59.21
250;BME280;109;19.806;-70.704;2023-02-28T11:02:33;101622.25;;;20.78;58.55
250;BME280;109;19.806;-70.704;2023-02-28T11:05:00;101625.59;;;20.86;58.72
250;BME280;109;19.806;-70.704;2023-02-28T11:07:27;101628.22;;;20.87;58.32
250;BME280;109;19.806;-70.704;2023-02-28T11:09:55;101624.63;;;20.90;58.47
250;BME280;109;19.806;-70.704;2023-02-28T11:12:25;101626.56;;;20.82;58.37
250;BME280;109;19.806;-70.704;2023-02-28T11:14:56;101632.53;;;20.93;58.14
250;BME280;109;19.806;-70.704;2023-02-28T11:17:29;101625.56;;;20.87;58.31
250;BME280;109;19.806;-70.704;2023-02-28T11:19:59;101616.63;;;20.90;58.46
250;BME280;109;19.806;-70.704;2023-02-28T11:22:39;101624.38;;;21.01;57.71
250;BME280;109;19.806;-70.704;2023-02-28T11:25:19;101633.00;;;21.10;58.10
250;BME280;109;19.806;-70.704;2023-02-28T11:27:50;101635.56;;;21.16;58.04
250;BME280;109;19.806;-70.704;2023-02-28T11:30:31;101640.88;;;21.16;58.05
250;BME280;109;19.806;-70.704;2023-02-28T11:33:13;101639.22;;;21.09;58.01
250;BME280;109;19.806;-70.704;2023-02-28T11:35:46;101633.03;;;21.09;57.71
250;BME280;109;19.806;-70.704;2023-02-28T11:38:14;101634.63;;;21.17;56.92
250;BME280;109;19.806;-70.704;2023-02-28T11:51:34;101638.34;;;21.46;55.84
250;BME280;109;19.806;-70.704;2023-02-28T12:02:42;101641.72;;;21.86;54.72
250;BME280;109;19.806;-70.704;2023-02-28T12:10:15;101640.91;;;22.15;54.03
250;BME280;109;19.806;-70.704;2023-02-28T12:19:03;101647.03;;;22.50;52.83
250;BME280;109;19.806;-70.704;2023-02-28T12:21:59;101639.88;;;22.50;53.20
250;BME280;109;19.806;-70.704;2023-02-28T12:27:17;101642.34;;;22.86;52.32
250;BME280;109;19.806;-70.704;2023-02-28T12:29:54;101641.22;;;22.93;51.35
250;BME280;109;19.806;-70.704;2023-02-28T12:35:13;101643.75;;;23.25;51.20
250;BME280;109;19.806;-70.704;2023-02-28T12:37:44;101645.03;;;23.40;50.27
250;BME280;109;19.806;-70.704;2023-02-28T12:40:20;101646.88;;;23.64;50.44
250;BME280;109;19.806;-70.704;2023-02-28T12:42:54;101650.47;;;23.63;49.36
250;BME280;109;19.806;-70.704;2023-02-28T12:45:39;101648.25;;;23.76;49.86
250;BME280;109;19.806;-70.704;2023-02-28T12:48:11;101653.50;;;23.79;48.87
250;BME280;109;19.806;-70.704;2023-02-28T12:50:41;101653.75;;;23.96;48.99
250;BME280;109;19.806;-70.704;2023-02-28T12:53:49;101661.22;;;24.12;48.97
250;BME280;109;19.806;-70.704;2023-02-28T13:02:17;101670.25;;;24.08;47.26
250;BME280;109;19.806;-70.704;2023-02-28T13:09:57;101685.63;;;24.51;47.82
250;BME280;109;19.806;-70.704;2023-02-28T13:12:26;101686.34;;;24.56;46.63
250;BME280;109;19.806;-70.704;2023-02-28T13:15:07;101689.63;;;24.62;46.55
250;BME280;109;19.806;-70.704;2023-02-28T13:17:39;101693.03;;;24.67;46.52
250;BME280;109;19.806;-70.704;2023-02-28T13:20:28;101698.25;;;24.70;44.56
250;BME280;109;19.806;-70.704;2023-02-28T13:22:56;101700.13;;;24.68;45.39
250;BME280;109;19.806;-70.704;2023-02-28T13:27:54;101711.53;;;24.97;45.23
250;BME280;109;19.806;-70.704;2023-02-28T13:33:35;101712.63;;;25.13;44.29
250;BME280;109;19.806;-70.704;2023-02-28T13:36:09;101710.28;;;25.27;43.14
250;BME280;109;19.806;-70.704;2023-02-28T13:38:50;101712.69;;;25.35;43.86
250;BME280;109;19.806;-70.704;2023-02-28T13:46:36;101709.69;;;25.42;42.89
250;BME280;109;19.806;-70.704;2023-02-28T13:49:31;101706.63;;;25.72;42.82
250;BME280;109;19.806;-70.704;2023-02-28T14:00:37;101735.06;;;25.10;48.93
250;BME280;109;19.806;-70.704;2023-02-28T14:03:38;101734.00;;;25.15;49.27
250;BME280;109;19.806;-70.704;2023-02-28T14:06:28;101739.78;;;24.82;48.68
250;BME280;109;19.806;-70.704;2023-02-28T14:11:33;101729.63;;;25.12;49.30
250;BME280;109;19.806;-70.704;2023-02-28T14:14:02;101732.47;;;25.09;48.75
250;BME280;109;19.806;-70.704;2023-02-28T14:16:41;101732.97;;;25.19;48.91
250;BME280;109;19.806;-70.704;2023-02-28T14:19:17;101733.38;;;25.31;48.73
250;BME280;109;19.806;-70.704;2023-02-28T14:22:25;101728.09;;;25.28;49.08
250;BME280;109;19.806;-70.704;2023-02-28T14:25:15;101729.47;;;25.17;50.25
250;BME280;109;19.806;-70.704;2023-02-28T14:36:23;101743.06;;;25.56;49.72
250;BME280;109;19.806;-70.704;2023-02-28T14:38:57;101741.72;;;25.45;49.24
250;BME280;109;19.806;-70.704;2023-02-28T14:41:31;101742.38;;;25.51;48.81
250;BME280;109;19.806;-70.704;2023-02-28T14:44:02;101737.84;;;25.53;49.25
250;BME280;109;19.806;-70.704;2023-02-28T14:46:41;101744.03;;;25.75;50.30
250;BME280;109;19.806;-70.704;2023-02-28T14:51:44;101739.06;;;25.88;49.92
250;BME280;109;19.806;-70.704;2023-02-28T14:54:15;101735.84;;;26.00;49.20
250;BME280;109;19.806;-70.704;2023-02-28T14:56:43;101731.75;;;26.11;48.56
250;BME280;109;19.806;-70.704;2023-02-28T14:59:25;101733.59;;;26.30;48.04
250;BME280;109;19.806;-70.704;2023-02-28T15:02:15;101722.06;;;26.28;48.45
250;BME280;109;19.806;-70.704;2023-02-28T15:04:42;101724.50;;;25.93;49.65
250;BME280;109;19.806;-70.704;2023-02-28T15:07:14;101725.44;;;26.12;47.41
250;BME280;109;19.806;-70.704;2023-02-28T15:09:41;101724.03;;;26.04;48.42
250;BME280;109;19.806;-70.704;2023-02-28T15:12:07;101720.66;;;26.19;47.71
250;BME280;109;19.806;-70.704;2023-02-28T15:14:42;101713.34;;;26.23;48.42
250;BME280;109;19.806;-70.704;2023-02-28T15:17:21;101709.06;;;26.19;49.52
250;BME280;109;19.806;-70.704;2023-02-28T15:19:53;101706.91;;;26.27;48.05
250;BME280;109;19.806;-70.704;2023-02-28T15:22:35;101704.75;;;26.35;47.63
250;BME280;109;19.806;-70.704;2023-02-28T15:25:03;101702.53;;;26.44;47.34
250;BME280;109;19.806;-70.704;2023-02-28T15:27:33;101705.81;;;26.51;46.47
250;BME280;109;19.806;-70.704;2023-02-28T15:30:06;101707.63;;;26.50;47.40
250;BME280;109;19.806;-70.704;2023-02-28T15:32:38;101708.94;;;26.01;49.42
250;BME280;109;19.806;-70.704;2023-02-28T15:38:18;101702.34;;;25.68;50.90
250;BME280;109;19.806;-70.704;2023-02-28T15:40:55;101700.47;;;25.70;52.09
250;BME280;109;19.806;-70.704;2023-02-28T15:43:33;101701.53;;;25.88;52.92
250;BME280;109;19.806;-70.704;2023-02-28T15:46:06;101697.25;;;26.23;52.07
250;BME280;109;19.806;-70.704;2023-02-28T15:48:43;101695.75;;;25.97;52.15
250;BME280;109;19.806;-70.704;2023-02-28T15:51:28;101687.09;;;26.10;51.84
250;BME280;109;19.806;-70.704;2023-02-28T15:54:02;101688.09;;;26.08;50.78